Time;durP1;ratioP1;P1;durP2;ratioP2;P2;SDS_P1;SDS_P2;PMS_P1;PMS_P2;Temp;Humidity;BMP_temperature;BMP_pressure;BME280_temperature;BME280_humidity;BME280_pressure;Samples;Min_cycle;Max_cycle;Signal;HPM_P1;HPM_P2
2021/03/05 00:03:17;;;;;;;21.17;12.05;;;6.70;99.90;;;;;;21046678;28;20095;-76
2021/03/05 00:13:21;;;;;;;27.87;13.17;;;6.70;99.90;;;;;;21096457;28;20035;-76
2021/03/05 00:23:22;;;;;;;28.92;12.15;;;6.70;99.90;;;;;;21164541;28;20437;-76
2021/03/05 00:33:23;;;;;;;26.87;13.37;;;6.60;99.90;;;;;;21145348;28;20028;-76
2021/03/05 00:43:24;;;;;;;33.70;14.97;;;6.60;99.90;;;;;;21161382;22;20417;-77
2021/03/05 00:53:25;;;;;;;24.00;12.00;;;6.30;99.90;;;;;;21060313;28;20020;-78
2021/03/05 01:03:26;;;;;;;29.87;14.57;;;6.30;99.90;;;;;;21011673;28;20032;-77
2021/03/05 01:13:27;;;;;;;28.87;15.00;;;6.50;99.90;;;;;;21002359;28;20510;-77
2021/03/05 01:23:28;;;;;;;33.53;15.10;;;6.50;99.90;;;;;;20992239;28;20035;-77
2021/03/05 01:33:29;;;;;;;43.67;18.17;;;6.10;99.90;;;;;;20992059;28;20116;-78
2021/03/05 01:43:37;;;;;;;30.30;14.77;;;6.00;99.90;;;;;;20957365;28;20195;-77
2021/03/05 01:53:43;;;;;;;30.70;15.02;;;6.00;99.90;;;;;;20890474;28;20039;-78
2021/03/05 02:03:43;;;;;;;34.08;14.88;;;6.10;99.90;;;;;;20907399;28;20087;-78
2021/03/05 02:13:44;;;;;;;26.50;15.17;;;6.20;99.90;;;;;;20907267;28;20100;-77
2021/03/05 02:24:03;;;;;;;36.17;15.13;;;6.00;99.90;;;;;;20913155;28;20025;-77
2021/03/05 02:34:22;;;;;;;33.85;16.70;;;5.90;99.90;;;;;;20888354;28;20441;-77
2021/03/05 02:44:26;;;;;;;38.45;17.33;;;5.50;99.90;;;;;;20921466;28;20036;-76
2021/03/05 02:54:28;;;;;;;36.65;19.20;;;5.60;99.90;;;;;;20986642;28;20557;-76
2021/03/05 03:04:30;;;;;;;37.90;19.33;;;5.60;99.90;;;;;;20985459;28;20033;-76
2021/03/05 03:14:31;;;;;;;56.00;21.02;;;5.80;99.90;;;;;;20984524;28;20038;-76
2021/03/05 03:24:33;;;;;;;68.38;21.10;;;5.60;99.90;;;;;;20984214;28;20044;-76
2021/03/05 03:34:33;;;;;;;54.28;22.02;;;5.50;99.90;;;;;;21001242;28;20036;-76
2021/03/05 03:44:34;;;;;;;48.40;22.23;;;5.40;99.90;;;;;;21000332;28;20434;-76
2021/03/05 03:54:37;;;;;;;48.33;21.10;;;5.50;99.90;;;;;;20998788;28;20036;-77
2021/03/05 04:04:39;;;;;;;48.20;22.30;;;5.60;99.90;;;;;;20999038;28;20028;-77
2021/03/05 04:14:41;;;;;;;56.65;24.27;;;5.70;99.90;;;;;;20983118;28;20498;-77
2021/03/05 04:24:41;;;;;;;;;;;5.90;99.90;;;;;;21000809;28;20387;-76
2021/03/05 04:34:42;;;;;;;54.63;22.33;;;6.00;99.90;;;;;;20979257;28;19912;-76
2021/03/05 04:44:43;;;;;;;50.90;22.43;;;5.90;99.90;;;;;;20995674;28;20287;-76
2021/03/05 04:54:44;;;;;;;52.93;22.43;;;5.80;99.90;;;;;;20976956;28;20064;-77
2021/03/05 05:04:45;;;;;;;42.90;20.17;;;5.60;99.90;;;;;;20993789;28;20021;-77
2021/03/05 05:14:45;;;;;;;44.53;20.43;;;5.40;99.90;;;;;;20993106;28;20092;-75
2021/03/05 05:24:46;;;;;;;48.57;23.10;;;5.40;99.90;;;;;;20992643;28;20078;-75
2021/03/05 05:34:47;;;;;;;66.17;37.67;;;5.10;99.90;;;;;;20991551;28;20036;-76
2021/03/05 05:44:49;;;;;;;52.57;23.80;;;5.00;99.90;;;;;;20991357;28;20123;-75
2021/03/05 05:54:53;;;;;;;50.58;23.17;;;5.10;99.90;;;;;;20973364;28;20098;-76
2021/03/05 06:04:55;;;;;;;62.88;28.27;;;5.10;99.90;;;;;;20972916;28;20053;-76
2021/03/05 06:14:56;;;;;;;57.72;27.23;;;5.10;99.90;;;;;;20992922;28;20085;-76
2021/03/05 06:24:56;;;;;;;59.57;27.13;;;5.20;99.90;;;;;;21006869;28;20032;-75
2021/03/05 06:34:57;;;;;;;52.57;26.87;;;5.50;99.90;;;;;;21023450;28;20055;-78
2021/03/05 06:45:10;;;;;;;56.97;23.90;;;5.70;99.90;;;;;;21011192;28;20547;-77
2021/03/05 06:55:11;;;;;;;59.45;25.60;;;5.80;99.90;;;;;;21103740;22;20182;-76
2021/03/05 07:05:12;;;;;;;47.03;22.92;;;5.80;99.90;;;;;;21086707;28;20036;-76
2021/03/05 07:15:13;;;;;;;60.78;23.98;;;6.00;99.90;;;;;;21128066;28;20059;-76
2021/03/05 07:25:16;;;;;;;47.53;23.43;;;5.90;99.90;;;;;;21169874;28;20043;-76
2021/03/05 07:35:31;;;;;;;43.85;20.35;;;6.20;99.90;;;;;;21159004;27;20023;-76
2021/03/05 07:45:32;;;;;;;55.08;27.75;;;6.20;99.90;;;;;;21150414;28;20043;-76
2021/03/05 07:55:41;;;;;;;35.80;16.80;;;6.20;99.90;;;;;;21219737;27;20023;-77
2021/03/05 08:05:45;;;;;;;45.33;22.23;;;6.30;99.90;;;;;;21251934;27;20043;-76
2021/03/05 08:15:45;;;;;;;59.78;31.52;;;6.30;99.90;;;;;;21221429;27;20035;-75
2021/03/05 08:25:49;;;;;;;34.97;16.50;;;6.40;99.90;;;;;;21159562;27;20043;-76
2021/03/05 08:35:50;;;;;;;33.83;17.00;;;6.50;99.90;;;;;;21150036;27;20041;-76
2021/03/05 08:46:05;;;;;;;34.03;16.87;;;6.30;99.90;;;;;;21226531;27;20058;-75
2021/03/05 08:56:06;;;;;;;33.10;15.55;;;6.30;99.90;;;;;;21199296;27;20284;-75
2021/03/05 09:06:12;;;;;;;26.73;13.93;;;6.40;99.90;;;;;;21208313;27;20611;-75
2021/03/05 09:16:12;;;;;;;34.45;15.85;;;6.50;99.90;;;;;;21227805;27;20033;-76
2021/03/05 09:26:17;;;;;;;36.37;16.97;;;6.40;99.90;;;;;;21225493;27;20027;-75
2021/03/05 09:36:22;;;;;;;45.15;19.52;;;6.30;99.90;;;;;;21201363;27;20084;-75
2021/03/05 09:46:25;;;;;;;43.05;22.10;;;6.30;99.90;;;;;;21224948;27;20118;-76
2021/03/05 09:56:28;;;;;;;49.33;22.83;;;6.50;99.90;;;;;;21201757;27;20497;-75
2021/03/05 10:06:30;;;;;;;48.33;22.48;;;6.40;99.90;;;;;;21168205;27;20540;-75
2021/03/05 10:16:40;;;;;;;51.30;22.85;;;6.40;99.90;;;;;;21106489;28;20027;-76
2021/03/05 10:37:03;;;;;;;43.88;20.25;;;6.00;99.90;;;;;;21197097;27;20034;-77
2021/03/05 10:47:06;;;;;;;39.08;17.52;;;6.00;99.90;;;;;;21163014;27;20085;-76
2021/03/05 10:57:08;;;;;;;38.88;16.75;;;5.70;99.90;;;;;;21194211;27;20404;-76
2021/03/05 11:07:09;;;;;;;21.77;8.95;;;5.60;99.90;;;;;;21138282;27;20059;-75
2021/03/05 11:17:10;;;;;;;11.10;5.93;;;5.60;99.90;;;;;;21195523;27;20084;-75
2021/03/05 11:27:11;;;;;;;14.77;7.10;;;5.50;99.90;;;;;;21214204;27;20034;-75
2021/03/05 11:37:12;;;;;;;42.28;14.88;;;5.40;99.90;;;;;;21212382;27;20027;-76
2021/03/05 11:47:12;;;;;;;20.90;9.20;;;5.20;99.90;;;;;;21227640;27;20034;-75
2021/03/05 11:57:13;;;;;;;32.43;13.47;;;5.20;99.90;;;;;;21156573;27;20042;-75
2021/03/05 12:07:14;;;;;;;17.83;7.37;;;5.30;99.90;;;;;;21141371;27;20446;-76
2021/03/05 12:17:15;;;;;;;15.43;7.27;;;5.40;99.90;;;;;;21129134;27;20040;-76
2021/03/05 12:27:16;;;;;;;16.77;7.97;;;5.30;99.90;;;;;;21245520;27;20069;-76
2021/03/05 12:37:17;;;;;;;21.50;9.50;;;5.30;99.90;;;;;;21252239;27;20481;-76
2021/03/05 12:47:17;;;;;;;15.63;7.57;;;5.40;99.90;;;;;;21273472;27;20068;-76
2021/03/05 12:57:18;;;;;;;17.60;8.00;;;5.50;99.90;;;;;;21319315;27;20027;-77
2021/03/05 13:07:19;;;;;;;21.33;9.97;;;5.60;99.90;;;;;;21318440;27;20054;-77
2021/03/05 13:17:20;;;;;;;16.17;8.47;;;5.90;99.90;;;;;;21335833;27;20122;-77
2021/03/05 13:27:21;;;;;;;15.43;8.27;;;5.70;99.90;;;;;;21314835;27;20031;-77
2021/03/05 13:37:22;;;;;;;18.30;8.73;;;5.30;99.90;;;;;;21195980;27;20481;-76
2021/03/05 13:47:24;;;;;;;19.07;8.77;;;5.30;99.90;;;;;;21223262;22;20563;-78
2021/03/05 13:57:25;;;;;;;;;;;5.40;99.90;;;;;;21123213;28;20654;-78
2021/03/05 14:07:25;;;;;;;18.55;8.68;;;5.50;99.90;;;;;;21116575;28;20031;-78
2021/03/05 14:17:26;;;;;;;27.60;10.93;;;5.60;99.90;;;;;;21144939;28;20032;-78
2021/03/05 14:27:27;;;;;;;39.93;14.53;;;5.60;99.90;;;;;;21110601;28;20401;-78
2021/03/05 14:37:29;;;;;;;43.65;14.80;;;5.60;99.90;;;;;;21111003;28;20042;-78
2021/03/05 14:47:29;;;;;;;26.07;10.90;;;5.30;99.90;;;;;;21145040;27;20389;-78
2021/03/05 14:57:30;;;;;;;18.23;9.10;;;5.50;99.90;;;;;;21122137;28;20027;-77
2021/03/05 15:07:31;;;;;;;20.27;9.47;;;5.30;99.90;;;;;;21123990;28;20024;-79
2021/03/05 15:17:32;;;;;;;19.43;8.97;;;5.20;99.90;;;;;;21144657;28;20118;-78
2021/03/05 15:27:33;;;;;;;17.13;8.83;;;5.20;99.90;;;;;;21165326;27;20074;-78
2021/03/05 15:37:34;;;;;;;23.17;9.20;;;5.20;99.90;;;;;;21166711;28;20439;-77
2021/03/05 15:47:35;;;;;;;24.50;9.80;;;5.30;99.90;;;;;;21155354;27;20034;-76
2021/03/05 15:57:36;;;;;;;15.98;7.63;;;5.10;99.90;;;;;;21195534;27;20036;-76
2021/03/05 16:07:37;;;;;;;16.83;8.37;;;5.10;99.90;;;;;;21148955;28;20112;-77
2021/03/05 16:17:38;;;;;;;17.83;8.23;;;5.20;99.90;;;;;;21161027;28;20054;-78
2021/03/05 16:27:39;;;;;;;21.57;9.10;;;5.10;99.90;;;;;;21106749;28;20059;-78
2021/03/05 16:37:41;;;;;;;17.37;7.40;;;5.10;99.90;;;;;;21079315;28;20042;-77
2021/03/05 16:47:41;;;;;;;19.70;7.78;;;4.90;99.90;;;;;;21175608;27;20035;-74
2021/03/05 16:57:42;;;;;;;18.90;7.97;;;4.80;99.90;;;;;;21145504;27;20092;-78
2021/03/05 17:07:43;;;;;;;20.87;8.40;;;4.80;99.90;;;;;;21144205;28;20092;-77
2021/03/05 17:17:44;;;;;;;21.23;9.30;;;4.70;99.90;;;;;;21158399;28;20070;-75
2021/03/05 17:27:44;;;;;;;21.30;9.67;;;4.70;99.90;;;;;;21161875;28;20379;-77
2021/03/05 17:37:45;;;;;;;20.83;9.10;;;4.70;99.90;;;;;;21160817;28;20445;-76
2021/03/05 17:47:46;;;;;;;24.97;11.30;;;4.70;99.90;;;;;;21139084;27;20034;-77
2021/03/05 17:57:47;;;;;;;27.20;8.97;;;4.70;99.90;;;;;;21144880;27;20516;-77
2021/03/05 18:07:48;;;;;;;24.20;9.27;;;4.60;99.90;;;;;;21147722;28;20103;-78
2021/03/05 18:17:49;;;;;;;21.47;9.47;;;4.60;99.90;;;;;;21073653;28;20097;-77
2021/03/05 18:38:14;;;;;;;21.05;9.48;;;4.60;99.90;;;;;;21580303;22;20056;-76
2021/03/05 18:48:16;;;;;;;23.63;9.75;;;4.50;99.90;;;;;;21001624;22;20418;-77
2021/03/05 18:58:16;;;;;;;21.33;9.30;;;4.50;99.90;;;;;;20983916;28;20406;-76
2021/03/05 19:08:17;;;;;;;21.10;9.47;;;4.40;99.90;;;;;;20986248;28;20121;-78
2021/03/05 19:18:18;;;;;;;19.98;8.80;;;4.30;99.90;;;;;;20929710;28;20079;-77
2021/03/05 19:28:19;;;;;;;20.30;9.47;;;4.40;99.90;;;;;;20963630;28;20032;-77
2021/03/05 19:38:22;;;;;;;19.53;9.20;;;4.40;99.90;;;;;;20992646;28;20033;-77
2021/03/05 19:48:24;;;;;;;23.02;9.98;;;4.30;99.90;;;;;;20988925;28;20032;-77
2021/03/05 19:58:24;;;;;;;19.73;9.02;;;4.30;99.90;;;;;;20918471;28;20039;-76
2021/03/05 20:08:25;;;;;;;33.20;15.30;;;4.30;99.90;;;;;;20965555;28;20587;-77
2021/03/05 20:18:26;;;;;;;25.10;9.60;;;4.30;99.90;;;;;;20951156;28;20456;-77
2021/03/05 20:28:27;;;;;;;20.20;9.17;;;4.30;99.90;;;;;;20977606;28;20037;-77
2021/03/05 20:38:28;;;;;;;22.63;8.93;;;4.30;99.90;;;;;;20970703;28;20367;-77
2021/03/05 20:48:29;;;;;;;18.00;8.90;;;4.30;99.90;;;;;;20958677;28;20033;-77
2021/03/05 20:58:30;;;;;;;17.83;8.77;;;4.20;99.90;;;;;;20992153;28;20104;-77
2021/03/05 21:08:31;;;;;;;17.67;8.20;;;4.10;99.90;;;;;;20992671;28;20048;-77
2021/03/05 21:18:32;;;;;;;16.42;8.50;;;4.10;99.90;;;;;;20987512;28;20032;-76
2021/03/05 21:28:33;;;;;;;25.25;9.38;;;4.10;99.90;;;;;;20957181;28;20046;-74
2021/03/05 21:38:34;;;;;;;20.73;9.37;;;4.10;99.90;;;;;;20989546;28;20406;-75
2021/03/05 21:48:35;;;;;;;18.35;8.20;;;3.90;99.90;;;;;;20956843;28;20048;-77
2021/03/05 21:58:36;;;;;;;15.10;7.50;;;3.80;99.90;;;;;;20989568;28;20032;-77
2021/03/05 22:08:37;;;;;;;14.63;6.80;;;3.70;99.90;;;;;;20987903;28;20028;-77
2021/03/05 22:18:38;;;;;;;15.75;6.47;;;3.60;99.90;;;;;;20970674;28;20027;-77
2021/03/05 22:28:39;;;;;;;;;;;3.60;99.90;;;;;;20953758;28;20040;-77
2021/03/05 22:38:40;;;;;;;9.35;5.47;;;3.40;99.90;;;;;;20953059;28;19961;-77
2021/03/05 22:48:41;;;;;;;;;;;3.40;99.90;;;;;;20990697;28;20055;-77
2021/03/05 22:58:42;;;;;;;11.93;5.50;;;3.40;99.90;;;;;;20964921;28;20271;-77
2021/03/05 23:08:43;;;;;;;9.35;5.10;;;3.30;99.90;;;;;;21006343;28;20036;-78
2021/03/05 23:18:44;;;;;;;12.18;5.78;;;3.20;99.90;;;;;;21006516;28;20086;-78
2021/03/05 23:28:45;;;;;;;11.98;5.43;;;3.20;99.90;;;;;;20987119;28;20040;-76
2021/03/05 23:38:46;;;;;;;13.18;5.57;;;3.20;99.90;;;;;;21003407;28;20379;-78
2021/03/05 23:48:47;;;;;;;10.20;5.28;;;3.10;99.90;;;;;;21003055;28;20039;-77
2021/03/05 23:58:48;;;;;;;11.30;5.73;;;2.90;99.90;;;;;;21001944;28;20498;-75
